sensor_id;sensor_type;location;lat;lon;timestamp;P1;durP1;ratioP1;P2;durP2;ratioP2
22955;SDS011;40888;48.148;11.526;2024-03-22T00:01:09;20.37;;;18.27;;
22955;SDS011;40888;48.148;11.526;2024-03-22T00:03:35;19.93;;;17.93;;
22955;SDS011;40888;48.148;11.526;2024-03-22T00:06:00;20.87;;;18.63;;
22955;SDS011;40888;48.148;11.526;2024-03-22T00:08:26;20.10;;;17.73;;
22955;SDS011;40888;48.148;11.526;2024-03-22T00:10:52;20.47;;;18.33;;
22955;SDS011;40888;48.148;11.526;2024-03-22T00:13:18;19.93;;;17.97;;
22955;SDS011;40888;48.148;11.526;2024-03-22T00:15:43;20.77;;;18.37;;
22955;SDS011;40888;48.148;11.526;2024-03-22T00:18:10;21.07;;;18.77;;
22955;SDS011;40888;48.148;11.526;2024-03-22T00:20:36;20.47;;;18.37;;
22955;SDS011;40888;48.148;11.526;2024-03-22T00:23:02;20.17;;;18.10;;
22955;SDS011;40888;48.148;11.526;2024-03-22T00:25:27;20.00;;;17.90;;
22955;SDS011;40888;48.148;11.526;2024-03-22T00:27:54;20.33;;;18.27;;
22955;SDS011;40888;48.148;11.526;2024-03-22T00:30:20;21.07;;;18.50;;
22955;SDS011;40888;48.148;11.526;2024-03-22T00:32:46;20.40;;;18.30;;
22955;SDS011;40888;48.148;11.526;2024-03-22T00:35:12;21.23;;;18.97;;
22955;SDS011;40888;48.148;11.526;2024-03-22T00:37:38;21.23;;;18.87;;
22955;SDS011;40888;48.148;11.526;2024-03-22T00:40:04;20.93;;;18.73;;
22955;SDS011;40888;48.148;11.526;2024-03-22T00:42:30;20.30;;;18.20;;
22955;SDS011;40888;48.148;11.526;2024-03-22T00:44:56;20.50;;;18.50;;
22955;SDS011;40888;48.148;11.526;2024-03-22T00:47:23;21.27;;;19.00;;
22955;SDS011;40888;48.148;11.526;2024-03-22T00:49:48;21.87;;;19.63;;
22955;SDS011;40888;48.148;11.526;2024-03-22T00:52:14;19.83;;;16.97;;
22955;SDS011;40888;48.148;11.526;2024-03-22T00:54:40;20.53;;;18.37;;
22955;SDS011;40888;48.148;11.526;2024-03-22T00:57:06;21.90;;;18.40;;
22955;SDS011;40888;48.148;11.526;2024-03-22T00:59:32;20.80;;;18.60;;
22955;SDS011;40888;48.148;11.526;2024-03-22T01:01:58;20.17;;;17.97;;
22955;SDS011;40888;48.148;11.526;2024-03-22T01:04:23;18.83;;;16.60;;
22955;SDS011;40888;48.148;11.526;2024-03-22T01:06:49;23.17;;;18.47;;
22955;SDS011;40888;48.148;11.526;2024-03-22T01:09:15;21.23;;;18.63;;
22955;SDS011;40888;48.148;11.526;2024-03-22T01:11:41;19.50;;;17.30;;
22955;SDS011;40888;48.148;11.526;2024-03-22T01:14:06;20.67;;;18.33;;
22955;SDS011;40888;48.148;11.526;2024-03-22T01:16:32;20.77;;;18.57;;
22955;SDS011;40888;48.148;11.526;2024-03-22T01:18:58;19.97;;;17.87;;
22955;SDS011;40888;48.148;11.526;2024-03-22T01:21:23;20.93;;;18.47;;
22955;SDS011;40888;48.148;11.526;2024-03-22T01:23:51;19.10;;;17.30;;
22955;SDS011;40888;48.148;11.526;2024-03-22T01:26:17;19.77;;;17.73;;
22955;SDS011;40888;48.148;11.526;2024-03-22T01:28:43;19.47;;;17.47;;
22955;SDS011;40888;48.148;11.526;2024-03-22T01:31:09;21.23;;;18.33;;
22955;SDS011;40888;48.148;11.526;2024-03-22T01:33:34;21.53;;;18.33;;
22955;SDS011;40888;48.148;11.526;2024-03-22T01:36:00;20.30;;;18.13;;
22955;SDS011;40888;48.148;11.526;2024-03-22T01:38:26;20.53;;;18.37;;
22955;SDS011;40888;48.148;11.526;2024-03-22T01:40:51;20.20;;;18.17;;
22955;SDS011;40888;48.148;11.526;2024-03-22T01:43:17;22.57;;;19.07;;
22955;SDS011;40888;48.148;11.526;2024-03-22T01:45:43;20.83;;;18.03;;
22955;SDS011;40888;48.148;11.526;2024-03-22T01:48:09;20.40;;;18.30;;
22955;SDS011;40888;48.148;11.526;2024-03-22T01:50:35;21.60;;;18.33;;
22955;SDS011;40888;48.148;11.526;2024-03-22T01:53:01;21.73;;;17.87;;
22955;SDS011;40888;48.148;11.526;2024-03-22T01:55:27;21.13;;;18.63;;
22955;SDS011;40888;48.148;11.526;2024-03-22T01:57:54;19.60;;;17.43;;
22955;SDS011;40888;48.148;11.526;2024-03-22T02:00:21;19.70;;;17.80;;
22955;SDS011;40888;48.148;11.526;2024-03-22T02:02:47;19.97;;;17.67;;
22955;SDS011;40888;48.148;11.526;2024-03-22T02:07:46;21.30;;;18.23;;
22955;SDS011;40888;48.148;11.526;2024-03-22T02:10:15;20.87;;;18.77;;
22955;SDS011;40888;48.148;11.526;2024-03-22T02:12:42;22.73;;;18.57;;
22955;SDS011;40888;48.148;11.526;2024-03-22T02:15:08;21.87;;;19.57;;
22955;SDS011;40888;48.148;11.526;2024-03-22T02:17:34;22.07;;;19.77;;
22955;SDS011;40888;48.148;11.526;2024-03-22T02:20:00;23.00;;;20.50;;
22955;SDS011;40888;48.148;11.526;2024-03-22T02:22:27;25.57;;;19.97;;
22955;SDS011;40888;48.148;11.526;2024-03-22T02:24:53;22.30;;;19.17;;
22955;SDS011;40888;48.148;11.526;2024-03-22T02:27:19;21.73;;;19.50;;
22955;SDS011;40888;48.148;11.526;2024-03-22T02:29:45;22.33;;;19.97;;
22955;SDS011;40888;48.148;11.526;2024-03-22T02:32:10;22.13;;;19.83;;
22955;SDS011;40888;48.148;11.526;2024-03-22T02:34:36;21.67;;;19.47;;
22955;SDS011;40888;48.148;11.526;2024-03-22T02:37:02;21.03;;;18.93;;
22955;SDS011;40888;48.148;11.526;2024-03-22T02:39:28;24.00;;;20.57;;
22955;SDS011;40888;48.148;11.526;2024-03-22T02:41:54;23.87;;;20.90;;
22955;SDS011;40888;48.148;11.526;2024-03-22T02:44:20;22.47;;;20.07;;
22955;SDS011;40888;48.148;11.526;2024-03-22T02:46:46;22.30;;;20.00;;
22955;SDS011;40888;48.148;11.526;2024-03-22T02:49:12;22.60;;;19.53;;
22955;SDS011;40888;48.148;11.526;2024-03-22T02:51:38;21.77;;;19.60;;
22955;SDS011;40888;48.148;11.526;2024-03-22T02:54:04;22.57;;;20.17;;
22955;SDS011;40888;48.148;11.526;2024-03-22T02:56:30;22.30;;;19.90;;
22955;SDS011;40888;48.148;11.526;2024-03-22T02:58:56;22.37;;;19.90;;
22955;SDS011;40888;48.148;11.526;2024-03-22T03:01:21;23.80;;;21.17;;
22955;SDS011;40888;48.148;11.526;2024-03-22T03:03:47;24.33;;;21.50;;
22955;SDS011;40888;48.148;11.526;2024-03-22T03:06:13;24.43;;;21.80;;
22955;SDS011;40888;48.148;11.526;2024-03-22T03:08:40;24.07;;;21.23;;
22955;SDS011;40888;48.148;11.526;2024-03-22T03:11:05;26.93;;;22.87;;
22955;SDS011;40888;48.148;11.526;2024-03-22T03:13:31;24.27;;;21.67;;
22955;SDS011;40888;48.148;11.526;2024-03-22T03:15:57;25.17;;;22.23;;
22955;SDS011;40888;48.148;11.526;2024-03-22T03:18:23;24.33;;;21.67;;
22955;SDS011;40888;48.148;11.526;2024-03-22T03:20:49;24.30;;;21.77;;
22955;SDS011;40888;48.148;11.526;2024-03-22T03:23:17;24.40;;;21.80;;
22955;SDS011;40888;48.148;11.526;2024-03-22T03:25:43;24.83;;;21.90;;
22955;SDS011;40888;48.148;11.526;2024-03-22T03:28:09;23.53;;;21.03;;
22955;SDS011;40888;48.148;11.526;2024-03-22T03:30:35;24.40;;;21.80;;
22955;SDS011;40888;48.148;11.526;2024-03-22T03:33:00;22.57;;;20.17;;
22955;SDS011;40888;48.148;11.526;2024-03-22T03:35:26;23.63;;;21.20;;
22955;SDS011;40888;48.148;11.526;2024-03-22T03:37:54;24.00;;;20.60;;
22955;SDS011;40888;48.148;11.526;2024-03-22T03:40:20;23.53;;;20.53;;
22955;SDS011;40888;48.148;11.526;2024-03-22T03:42:49;24.23;;;21.23;;
22955;SDS011;40888;48.148;11.526;2024-03-22T03:45:16;23.40;;;20.90;;
22955;SDS011;40888;48.148;11.526;2024-03-22T03:47:42;23.57;;;19.63;;
22955;SDS011;40888;48.148;11.526;2024-03-22T03:50:07;22.43;;;20.03;;
22955;SDS011;40888;48.148;11.526;2024-03-22T03:52:33;22.43;;;20.13;;
22955;SDS011;40888;48.148;11.526;2024-03-22T03:54:59;23.43;;;20.93;;
22955;SDS011;40888;48.148;11.526;2024-03-22T03:57:25;22.10;;;19.80;;
22955;SDS011;40888;48.148;11.526;2024-03-22T03:59:51;23.13;;;20.63;;
22955;SDS011;40888;48.148;11.526;2024-03-22T04:02:16;21.77;;;19.47;;
22955;SDS011;40888;48.148;11.526;2024-03-22T04:04:42;21.23;;;19.00;;
22955;SDS011;40888;48.148;11.526;2024-03-22T04:07:08;22.37;;;19.93;;
22955;SDS011;40888;48.148;11.526;2024-03-22T04:09:34;20.70;;;18.30;;
22955;SDS011;40888;48.148;11.526;2024-03-22T04:11:59;21.07;;;18.87;;
22955;SDS011;40888;48.148;11.526;2024-03-22T04:14:25;21.63;;;19.43;;
22955;SDS011;40888;48.148;11.526;2024-03-22T04:16:51;23.13;;;20.73;;
22955;SDS011;40888;48.148;11.526;2024-03-22T04:19:19;23.43;;;20.50;;
22955;SDS011;40888;48.148;11.526;2024-03-22T04:21:46;23.13;;;20.70;;
22955;SDS011;40888;48.148;11.526;2024-03-22T04:24:12;23.03;;;20.40;;
22955;SDS011;40888;48.148;11.526;2024-03-22T04:26:38;22.77;;;20.37;;
22955;SDS011;40888;48.148;11.526;2024-03-22T04:29:03;22.80;;;20.10;;
22955;SDS011;40888;48.148;11.526;2024-03-22T04:31:29;22.37;;;19.80;;
22955;SDS011;40888;48.148;11.526;2024-03-22T04:33:55;26.63;;;22.20;;
22955;SDS011;40888;48.148;11.526;2024-03-22T04:36:21;24.97;;;21.00;;
22955;SDS011;40888;48.148;11.526;2024-03-22T04:38:47;24.00;;;21.53;;
22955;SDS011;40888;48.148;11.526;2024-03-22T04:41:13;23.10;;;20.63;;
22955;SDS011;40888;48.148;11.526;2024-03-22T04:43:39;24.77;;;20.97;;
22955;SDS011;40888;48.148;11.526;2024-03-22T04:46:04;24.50;;;21.40;;
22955;SDS011;40888;48.148;11.526;2024-03-22T04:48:30;22.47;;;20.17;;
22955;SDS011;40888;48.148;11.526;2024-03-22T04:50:56;24.13;;;21.47;;
22955;SDS011;40888;48.148;11.526;2024-03-22T04:53:22;26.10;;;22.93;;
22955;SDS011;40888;48.148;11.526;2024-03-22T04:55:48;23.27;;;20.70;;
22955;SDS011;40888;48.148;11.526;2024-03-22T04:58:18;23.00;;;20.40;;
22955;SDS011;40888;48.148;11.526;2024-03-22T05:00:44;21.40;;;19.17;;
22955;SDS011;40888;48.148;11.526;2024-03-22T05:03:11;27.40;;;20.90;;
22955;SDS011;40888;48.148;11.526;2024-03-22T05:05:37;22.73;;;20.33;;
22955;SDS011;40888;48.148;11.526;2024-03-22T05:08:04;21.60;;;19.27;;
22955;SDS011;40888;48.148;11.526;2024-03-22T05:10:30;21.73;;;19.43;;
22955;SDS011;40888;48.148;11.526;2024-03-22T05:12:57;22.47;;;18.57;;
22955;SDS011;40888;48.148;11.526;2024-03-22T05:15:23;21.53;;;19.30;;
22955;SDS011;40888;48.148;11.526;2024-03-22T05:17:52;21.33;;;19.10;;
22955;SDS011;40888;48.148;11.526;2024-03-22T05:20:18;22.03;;;18.93;;
22955;SDS011;40888;48.148;11.526;2024-03-22T05:22:44;21.33;;;19.03;;
22955;SDS011;40888;48.148;11.526;2024-03-22T05:25:10;24.00;;;19.10;;
22955;SDS011;40888;48.148;11.526;2024-03-22T05:27:37;19.93;;;17.83;;
22955;SDS011;40888;48.148;11.526;2024-03-22T05:30:03;20.43;;;18.27;;
22955;SDS011;40888;48.148;11.526;2024-03-22T05:32:29;20.63;;;18.37;;
22955;SDS011;40888;48.148;11.526;2024-03-22T05:34:55;21.33;;;19.13;;
22955;SDS011;40888;48.148;11.526;2024-03-22T05:37:21;22.83;;;18.40;;
22955;SDS011;40888;48.148;11.526;2024-03-22T05:39:47;18.93;;;16.93;;
22955;SDS011;40888;48.148;11.526;2024-03-22T05:42:13;20.17;;;18.00;;
22955;SDS011;40888;48.148;11.526;2024-03-22T05:44:39;19.90;;;17.57;;
22955;SDS011;40888;48.148;11.526;2024-03-22T05:47:04;18.67;;;16.53;;
22955;SDS011;40888;48.148;11.526;2024-03-22T05:49:30;18.33;;;16.37;;
22955;SDS011;40888;48.148;11.526;2024-03-22T05:51:56;18.90;;;17.00;;
22955;SDS011;40888;48.148;11.526;2024-03-22T05:54:22;18.60;;;16.63;;
22955;SDS011;40888;48.148;11.526;2024-03-22T05:56:47;18.03;;;15.97;;
22955;SDS011;40888;48.148;11.526;2024-03-22T05:59:13;18.13;;;16.23;;
22955;SDS011;40888;48.148;11.526;2024-03-22T06:01:39;17.27;;;15.47;;
22955;SDS011;40888;48.148;11.526;2024-03-22T06:04:05;16.23;;;14.67;;
22955;SDS011;40888;48.148;11.526;2024-03-22T06:06:34;17.37;;;14.73;;
22955;SDS011;40888;48.148;11.526;2024-03-22T06:09:01;17.07;;;15.03;;
22955;SDS011;40888;48.148;11.526;2024-03-22T06:11:34;19.80;;;15.73;;
22955;SDS011;40888;48.148;11.526;2024-03-22T06:14:00;16.00;;;14.40;;
22955;SDS011;40888;48.148;11.526;2024-03-22T06:16:26;18.97;;;15.57;;
22955;SDS011;40888;48.148;11.526;2024-03-22T06:18:52;18.80;;;15.67;;
22955;SDS011;40888;48.148;11.526;2024-03-22T06:21:17;17.47;;;15.77;;
22955;SDS011;40888;48.148;11.526;2024-03-22T06:23:50;17.33;;;15.63;;
22955;SDS011;40888;48.148;11.526;2024-03-22T06:26:17;17.13;;;15.43;;
22955;SDS011;40888;48.148;11.526;2024-03-22T06:28:43;16.20;;;14.57;;
22955;SDS011;40888;48.148;11.526;2024-03-22T06:31:09;19.07;;;15.50;;
22955;SDS011;40888;48.148;11.526;2024-03-22T06:33:34;15.60;;;14.00;;
22955;SDS011;40888;48.148;11.526;2024-03-22T06:36:00;17.00;;;15.27;;
22955;SDS011;40888;48.148;11.526;2024-03-22T06:38:28;17.03;;;13.53;;
22955;SDS011;40888;48.148;11.526;2024-03-22T06:40:53;17.17;;;14.33;;
22955;SDS011;40888;48.148;11.526;2024-03-22T06:43:19;16.20;;;14.47;;
22955;SDS011;40888;48.148;11.526;2024-03-22T06:45:45;17.20;;;15.40;;
22955;SDS011;40888;48.148;11.526;2024-03-22T06:48:11;17.00;;;15.20;;
22955;SDS011;40888;48.148;11.526;2024-03-22T06:50:36;16.63;;;14.97;;
22955;SDS011;40888;48.148;11.526;2024-03-22T06:53:02;16.33;;;14.13;;
22955;SDS011;40888;48.148;11.526;2024-03-22T06:55:28;15.60;;;13.83;;
22955;SDS011;40888;48.148;11.526;2024-03-22T06:57:53;15.47;;;13.97;;
22955;SDS011;40888;48.148;11.526;2024-03-22T07:00:19;15.03;;;13.40;;
22955;SDS011;40888;48.148;11.526;2024-03-22T07:02:45;14.37;;;13.00;;
22955;SDS011;40888;48.148;11.526;2024-03-22T07:05:11;14.83;;;13.43;;
22955;SDS011;40888;48.148;11.526;2024-03-22T07:07:37;14.97;;;12.80;;
22955;SDS011;40888;48.148;11.526;2024-03-22T07:10:03;13.40;;;12.03;;
22955;SDS011;40888;48.148;11.526;2024-03-22T07:12:32;14.00;;;12.07;;
22955;SDS011;40888;48.148;11.526;2024-03-22T07:15:01;13.77;;;11.53;;
22955;SDS011;40888;48.148;11.526;2024-03-22T07:17:28;13.07;;;11.57;;
22955;SDS011;40888;48.148;11.526;2024-03-22T07:19:54;12.57;;;11.37;;
22955;SDS011;40888;48.148;11.526;2024-03-22T07:22:21;12.43;;;11.20;;
22955;SDS011;40888;48.148;11.526;2024-03-22T07:24:47;12.20;;;10.97;;
22955;SDS011;40888;48.148;11.526;2024-03-22T07:27:14;12.23;;;11.00;;
22955;SDS011;40888;48.148;11.526;2024-03-22T07:29:43;11.23;;;10.13;;
22955;SDS011;40888;48.148;11.526;2024-03-22T07:32:09;11.20;;;10.20;;
22955;SDS011;40888;48.148;11.526;2024-03-22T07:34:35;10.97;;;9.87;;
22955;SDS011;40888;48.148;11.526;2024-03-22T07:37:01;11.70;;;10.60;;
22955;SDS011;40888;48.148;11.526;2024-03-22T07:39:27;10.50;;;9.50;;
22955;SDS011;40888;48.148;11.526;2024-03-22T07:41:52;11.80;;;10.00;;
22955;SDS011;40888;48.148;11.526;2024-03-22T07:44:18;10.07;;;9.17;;
22955;SDS011;40888;48.148;11.526;2024-03-22T07:46:49;10.37;;;9.27;;
22955;SDS011;40888;48.148;11.526;2024-03-22T07:49:15;9.93;;;8.97;;
22955;SDS011;40888;48.148;11.526;2024-03-22T07:51:40;10.83;;;9.73;;
22955;SDS011;40888;48.148;11.526;2024-03-22T07:54:06;11.43;;;8.77;;
22955;SDS011;40888;48.148;11.526;2024-03-22T07:56:32;9.47;;;8.57;;
22955;SDS011;40888;48.148;11.526;2024-03-22T07:58:58;10.53;;;9.23;;
22955;SDS011;40888;48.148;11.526;2024-03-22T08:01:24;8.93;;;8.00;;
22955;SDS011;40888;48.148;11.526;2024-03-22T08:03:50;9.20;;;8.20;;
22955;SDS011;40888;48.148;11.526;2024-03-22T08:06:16;9.33;;;8.00;;
22955;SDS011;40888;48.148;11.526;2024-03-22T08:08:42;8.77;;;7.57;;
22955;SDS011;40888;48.148;11.526;2024-03-22T08:11:09;8.77;;;7.87;;
22955;SDS011;40888;48.148;11.526;2024-03-22T08:13:34;9.43;;;8.00;;
22955;SDS011;40888;48.148;11.526;2024-03-22T08:16:01;11.20;;;6.90;;
22955;SDS011;40888;48.148;11.526;2024-03-22T08:18:26;8.00;;;6.53;;
22955;SDS011;40888;48.148;11.526;2024-03-22T08:20:52;6.38;;;5.78;;
22955;SDS011;40888;48.148;11.526;2024-03-22T08:23:18;5.55;;;4.97;;
22955;SDS011;40888;48.148;11.526;2024-03-22T08:25:45;7.13;;;5.03;;
22955;SDS011;40888;48.148;11.526;2024-03-22T08:28:11;5.72;;;5.13;;
22955;SDS011;40888;48.148;11.526;2024-03-22T08:30:38;6.53;;;5.13;;
22955;SDS011;40888;48.148;11.526;2024-03-22T08:33:05;8.20;;;4.20;;
22955;SDS011;40888;48.148;11.526;2024-03-22T08:35:30;7.05;;;5.20;;
22955;SDS011;40888;48.148;11.526;2024-03-22T08:37:56;5.20;;;4.70;;
22955;SDS011;40888;48.148;11.526;2024-03-22T08:40:23;5.35;;;4.80;;
22955;SDS011;40888;48.148;11.526;2024-03-22T08:42:49;5.88;;;4.80;;
22955;SDS011;40888;48.148;11.526;2024-03-22T08:45:15;6.90;;;5.22;;
22955;SDS011;40888;48.148;11.526;2024-03-22T08:47:41;7.55;;;4.60;;
22955;SDS011;40888;48.148;11.526;2024-03-22T08:50:08;7.93;;;4.90;;
22955;SDS011;40888;48.148;11.526;2024-03-22T08:52:34;7.97;;;5.30;;
22955;SDS011;40888;48.148;11.526;2024-03-22T08:55:01;6.78;;;4.57;;
22955;SDS011;40888;48.148;11.526;2024-03-22T08:57:26;5.93;;;5.10;;
22955;SDS011;40888;48.148;11.526;2024-03-22T08:59:52;6.65;;;4.57;;
22955;SDS011;40888;48.148;11.526;2024-03-22T09:02:18;5.82;;;5.30;;
22955;SDS011;40888;48.148;11.526;2024-03-22T09:04:44;6.57;;;5.30;;
22955;SDS011;40888;48.148;11.526;2024-03-22T09:07:11;8.10;;;5.63;;
22955;SDS011;40888;48.148;11.526;2024-03-22T09:09:37;6.05;;;5.45;;
22955;SDS011;40888;48.148;11.526;2024-03-22T09:12:03;5.20;;;4.70;;
22955;SDS011;40888;48.148;11.526;2024-03-22T09:14:29;5.53;;;4.53;;
22955;SDS011;40888;48.148;11.526;2024-03-22T09:16:54;7.40;;;4.65;;
22955;SDS011;40888;48.148;11.526;2024-03-22T09:19:20;6.18;;;4.60;;
22955;SDS011;40888;48.148;11.526;2024-03-22T09:21:46;6.45;;;4.18;;
22955;SDS011;40888;48.148;11.526;2024-03-22T09:24:12;5.72;;;4.57;;
22955;SDS011;40888;48.148;11.526;2024-03-22T09:26:38;5.07;;;4.57;;
22955;SDS011;40888;48.148;11.526;2024-03-22T09:29:03;7.15;;;4.25;;
22955;SDS011;40888;48.148;11.526;2024-03-22T09:31:29;6.97;;;5.22;;
22955;SDS011;40888;48.148;11.526;2024-03-22T09:33:56;6.90;;;4.28;;
22955;SDS011;40888;48.148;11.526;2024-03-22T09:36:22;4.45;;;4.05;;
22955;SDS011;40888;48.148;11.526;2024-03-22T09:38:47;5.18;;;4.13;;
22955;SDS011;40888;48.148;11.526;2024-03-22T09:41:14;5.20;;;4.28;;
22955;SDS011;40888;48.148;11.526;2024-03-22T09:43:40;5.30;;;4.25;;
22955;SDS011;40888;48.148;11.526;2024-03-22T09:46:09;6.25;;;3.90;;
22955;SDS011;40888;48.148;11.526;2024-03-22T09:48:36;4.95;;;4.30;;
22955;SDS011;40888;48.148;11.526;2024-03-22T09:51:03;6.40;;;4.57;;
22955;SDS011;40888;48.148;11.526;2024-03-22T09:53:29;4.80;;;4.30;;
22955;SDS011;40888;48.148;11.526;2024-03-22T09:55:56;7.30;;;4.18;;
22955;SDS011;40888;48.148;11.526;2024-03-22T09:58:26;4.95;;;3.95;;
22955;SDS011;40888;48.148;11.526;2024-03-22T10:00:53;5.90;;;4.28;;
22955;SDS011;40888;48.148;11.526;2024-03-22T10:03:25;5.97;;;4.05;;
22955;SDS011;40888;48.148;11.526;2024-03-22T10:05:51;7.68;;;4.45;;
22955;SDS011;40888;48.148;11.526;2024-03-22T10:08:16;5.55;;;4.20;;
22955;SDS011;40888;48.148;11.526;2024-03-22T10:10:43;6.05;;;3.90;;
22955;SDS011;40888;48.148;11.526;2024-03-22T10:13:08;5.55;;;3.95;;
22955;SDS011;40888;48.148;11.526;2024-03-22T10:15:34;5.90;;;4.47;;
22955;SDS011;40888;48.148;11.526;2024-03-22T10:18:00;5.88;;;3.63;;
22955;SDS011;40888;48.148;11.526;2024-03-22T10:20:25;4.65;;;4.20;;
22955;SDS011;40888;48.148;11.526;2024-03-22T10:22:55;6.35;;;3.95;;
22955;SDS011;40888;48.148;11.526;2024-03-22T10:25:23;5.55;;;4.45;;
22955;SDS011;40888;48.148;11.526;2024-03-22T10:27:49;5.85;;;4.50;;
22955;SDS011;40888;48.148;11.526;2024-03-22T10:30:15;5.30;;;3.85;;
22955;SDS011;40888;48.148;11.526;2024-03-22T10:32:42;5.55;;;3.60;;
22955;SDS011;40888;48.148;11.526;2024-03-22T10:35:12;6.30;;;4.80;;
22955;SDS011;40888;48.148;11.526;2024-03-22T10:37:39;4.50;;;4.07;;
22955;SDS011;40888;48.148;11.526;2024-03-22T10:40:05;4.70;;;4.03;;
22955;SDS011;40888;48.148;11.526;2024-03-22T10:42:38;5.63;;;4.40;;
22955;SDS011;40888;48.148;11.526;2024-03-22T10:45:05;5.13;;;3.88;;
22955;SDS011;40888;48.148;11.526;2024-03-22T10:47:33;5.60;;;4.00;;
22955;SDS011;40888;48.148;11.526;2024-03-22T10:50:07;7.60;;;4.60;;
22955;SDS011;40888;48.148;11.526;2024-03-22T10:55:24;5.10;;;4.40;;
22955;SDS011;40888;48.148;11.526;2024-03-22T10:57:56;6.30;;;4.57;;
22955;SDS011;40888;48.148;11.526;2024-03-22T11:00:32;7.82;;;4.80;;
22955;SDS011;40888;48.148;11.526;2024-03-22T11:03:02;7.95;;;4.95;;
22955;SDS011;40888;48.148;11.526;2024-03-22T11:05:28;7.20;;;4.65;;
22955;SDS011;40888;48.148;11.526;2024-03-22T11:08:04;5.97;;;3.97;;
22955;SDS011;40888;48.148;11.526;2024-03-22T11:10:33;4.88;;;4.05;;
22955;SDS011;40888;48.148;11.526;2024-03-22T11:13:03;4.65;;;4.10;;
22955;SDS011;40888;48.148;11.526;2024-03-22T11:15:30;8.65;;;4.03;;
22955;SDS011;40888;48.148;11.526;2024-03-22T11:17:56;8.18;;;4.22;;
22955;SDS011;40888;48.148;11.526;2024-03-22T11:20:23;6.20;;;4.55;;
22955;SDS011;40888;48.148;11.526;2024-03-22T11:22:49;7.10;;;4.15;;
22955;SDS011;40888;48.148;11.526;2024-03-22T11:25:16;6.18;;;4.00;;
22955;SDS011;40888;48.148;11.526;2024-03-22T11:27:42;4.75;;;4.25;;
22955;SDS011;40888;48.148;11.526;2024-03-22T11:30:08;6.45;;;4.45;;
22955;SDS011;40888;48.148;11.526;2024-03-22T11:32:34;7.22;;;4.90;;
22955;SDS011;40888;48.148;11.526;2024-03-22T11:35:09;6.30;;;4.15;;
22955;SDS011;40888;48.148;11.526;2024-03-22T11:37:36;4.72;;;3.70;;
22955;SDS011;40888;48.148;11.526;2024-03-22T11:40:06;4.82;;;3.75;;
22955;SDS011;40888;48.148;11.526;2024-03-22T11:42:39;5.38;;;3.78;;
22955;SDS011;40888;48.148;11.526;2024-03-22T11:45:10;4.32;;;3.92;;
22955;SDS011;40888;48.148;11.526;2024-03-22T11:47:38;7.25;;;4.60;;
22955;SDS011;40888;48.148;11.526;2024-03-22T11:50:04;3.65;;;3.35;;
22955;SDS011;40888;48.148;11.526;2024-03-22T11:52:30;6.03;;;4.40;;
22955;SDS011;40888;48.148;11.526;2024-03-22T11:54:56;4.78;;;3.97;;
22955;SDS011;40888;48.148;11.526;2024-03-22T11:57:22;5.40;;;4.53;;
22955;SDS011;40888;48.148;11.526;2024-03-22T11:59:50;4.72;;;4.15;;
22955;SDS011;40888;48.148;11.526;2024-03-22T12:02:16;6.35;;;3.83;;
22955;SDS011;40888;48.148;11.526;2024-03-22T12:04:42;12.30;;;5.10;;
22955;SDS011;40888;48.148;11.526;2024-03-22T12:07:16;7.25;;;4.80;;
22955;SDS011;40888;48.148;11.526;2024-03-22T12:09:42;7.53;;;4.18;;
22955;SDS011;40888;48.148;11.526;2024-03-22T12:12:10;5.88;;;4.53;;
22955;SDS011;40888;48.148;11.526;2024-03-22T12:14:36;4.53;;;3.35;;
22955;SDS011;40888;48.148;11.526;2024-03-22T12:17:03;5.38;;;4.15;;
22955;SDS011;40888;48.148;11.526;2024-03-22T12:19:30;7.82;;;4.75;;
22955;SDS011;40888;48.148;11.526;2024-03-22T12:21:56;6.15;;;4.32;;
22955;SDS011;40888;48.148;11.526;2024-03-22T12:24:22;5.07;;;3.67;;
22955;SDS011;40888;48.148;11.526;2024-03-22T12:26:49;4.40;;;3.90;;
22955;SDS011;40888;48.148;11.526;2024-03-22T12:29:15;6.95;;;3.97;;
22955;SDS011;40888;48.148;11.526;2024-03-22T12:31:42;7.28;;;3.85;;
22955;SDS011;40888;48.148;11.526;2024-03-22T12:34:08;5.05;;;3.75;;
22955;SDS011;40888;48.148;11.526;2024-03-22T12:36:34;7.30;;;4.20;;
22955;SDS011;40888;48.148;11.526;2024-03-22T12:39:00;4.28;;;3.67;;
22955;SDS011;40888;48.148;11.526;2024-03-22T12:41:25;6.28;;;4.13;;
22955;SDS011;40888;48.148;11.526;2024-03-22T12:43:52;5.68;;;3.67;;
22955;SDS011;40888;48.148;11.526;2024-03-22T12:46:18;6.68;;;3.85;;
22955;SDS011;40888;48.148;11.526;2024-03-22T12:48:44;4.28;;;3.25;;
22955;SDS011;40888;48.148;11.526;2024-03-22T12:51:09;3.92;;;3.53;;
22955;SDS011;40888;48.148;11.526;2024-03-22T12:53:36;6.50;;;3.90;;
22955;SDS011;40888;48.148;11.526;2024-03-22T12:56:03;8.07;;;4.10;;
22955;SDS011;40888;48.148;11.526;2024-03-22T12:58:29;5.75;;;4.30;;
22955;SDS011;40888;48.148;11.526;2024-03-22T13:00:58;5.45;;;3.70;;
22955;SDS011;40888;48.148;11.526;2024-03-22T13:03:30;6.32;;;4.13;;
22955;SDS011;40888;48.148;11.526;2024-03-22T13:05:55;8.50;;;3.38;;
22955;SDS011;40888;48.148;11.526;2024-03-22T13:08:21;4.63;;;3.72;;
22955;SDS011;40888;48.148;11.526;2024-03-22T13:10:47;5.53;;;3.75;;
22955;SDS011;40888;48.148;11.526;2024-03-22T13:13:13;5.03;;;3.70;;
22955;SDS011;40888;48.148;11.526;2024-03-22T13:15:41;7.07;;;4.15;;
22955;SDS011;40888;48.148;11.526;2024-03-22T13:18:07;4.15;;;3.40;;
22955;SDS011;40888;48.148;11.526;2024-03-22T13:20:36;6.18;;;3.85;;
22955;SDS011;40888;48.148;11.526;2024-03-22T13:23:02;4.68;;;3.03;;
22955;SDS011;40888;48.148;11.526;2024-03-22T13:25:28;3.83;;;3.20;;
22955;SDS011;40888;48.148;11.526;2024-03-22T13:27:54;3.63;;;3.25;;
22955;SDS011;40888;48.148;11.526;2024-03-22T13:30:20;4.70;;;2.90;;
22955;SDS011;40888;48.148;11.526;2024-03-22T13:32:53;5.13;;;2.70;;
22955;SDS011;40888;48.148;11.526;2024-03-22T13:35:34;6.03;;;2.85;;
22955;SDS011;40888;48.148;11.526;2024-03-22T13:37:59;3.53;;;2.80;;
22955;SDS011;40888;48.148;11.526;2024-03-22T13:40:26;3.35;;;3.10;;
22955;SDS011;40888;48.148;11.526;2024-03-22T13:42:55;3.55;;;3.00;;
22955;SDS011;40888;48.148;11.526;2024-03-22T13:45:20;3.88;;;3.13;;
22955;SDS011;40888;48.148;11.526;2024-03-22T13:47:47;6.22;;;2.72;;
22955;SDS011;40888;48.148;11.526;2024-03-22T13:50:13;4.60;;;3.15;;
22955;SDS011;40888;48.148;11.526;2024-03-22T13:52:38;3.15;;;2.80;;
22955;SDS011;40888;48.148;11.526;2024-03-22T13:55:04;3.92;;;2.95;;
22955;SDS011;40888;48.148;11.526;2024-03-22T13:57:30;5.28;;;3.15;;
22955;SDS011;40888;48.148;11.526;2024-03-22T13:59:57;2.92;;;2.72;;
22955;SDS011;40888;48.148;11.526;2024-03-22T14:02:24;3.97;;;2.90;;
22955;SDS011;40888;48.148;11.526;2024-03-22T14:04:49;2.38;;;2.17;;
22955;SDS011;40888;48.148;11.526;2024-03-22T14:07:15;3.60;;;2.67;;
22955;SDS011;40888;48.148;11.526;2024-03-22T14:09:41;4.63;;;2.80;;
22955;SDS011;40888;48.148;11.526;2024-03-22T14:12:08;4.18;;;2.90;;
22955;SDS011;40888;48.148;11.526;2024-03-22T14:14:34;3.65;;;3.03;;
22955;SDS011;40888;48.148;11.526;2024-03-22T14:17:00;2.53;;;2.08;;
22955;SDS011;40888;48.148;11.526;2024-03-22T14:19:25;3.22;;;2.13;;
22955;SDS011;40888;48.148;11.526;2024-03-22T14:21:51;2.95;;;2.30;;